Time;durP1;ratioP1;P1;durP2;ratioP2;P2;SDS_P1;SDS_P2;PMS_P1;PMS_P2;Temp;Humidity;BMP_temperature;BMP_pressure;BME280_temperature;BME280_humidity;BME280_pressure;Samples;Min_cycle;Max_cycle;Signal;HPM_P1;HPM_P2
2022/09/24 00:01:40;;;;;;;;;;;14.50;99.90;;;;;;5129141;27;19927;-78
2022/09/24 00:04:07;;;;;;;;;;;14.60;99.90;;;;;;5120134;28;19912;-78
2022/09/24 00:06:37;;;;;;;;;;;14.50;99.90;;;;;;5118568;28;19965;-79
2022/09/24 00:09:03;;;;;;;;;;;14.40;99.90;;;;;;5119296;28;19908;-78
2022/09/24 00:11:28;;;;;;;;;;;14.40;99.90;;;;;;5119786;28;19907;-78
2022/09/24 00:13:55;;;;;;;;;;;14.30;99.90;;;;;;5118824;28;20315;-79
2022/09/24 00:16:22;;;;;;;;;;;14.30;99.90;;;;;;5118676;28;19908;-78
2022/09/24 00:18:47;;;;;;;;;;;14.30;99.90;;;;;;5119886;28;19908;-79
2022/09/24 00:21:21;;;;;;;;;;;14.30;99.90;;;;;;5119036;28;19907;-79
2022/09/24 00:23:54;;;;;;;;;;;14.40;99.90;;;;;;5118902;28;19922;-79
2022/09/24 00:29:05;;;;;;;;;;;14.40;99.90;;;;;;5129206;27;19968;-79
2022/09/24 00:31:31;;;;;;;;;;;14.40;99.90;;;;;;5131433;27;19957;-78
2022/09/24 00:33:57;;;;;;;;;;;14.50;99.90;;;;;;5126589;27;19916;-80
2022/09/24 00:36:26;;;;;;;;;;;14.50;99.90;;;;;;5138928;27;19908;-78
2022/09/24 00:38:52;;;;;;;;;;;14.40;99.90;;;;;;5120923;27;19908;-78
2022/09/24 00:41:19;;;;;;;;;;;14.30;99.90;;;;;;5105899;28;19912;-78
2022/09/24 00:43:45;;;;;;;;;;;14.30;99.90;;;;;;5102004;28;19931;-78
2022/09/24 00:46:18;;;;;;;;;;;14.30;99.90;;;;;;5102826;27;19911;-79
2022/09/24 00:48:45;;;;;;;;;;;14.30;99.90;;;;;;5119987;27;20274;-78
2022/09/24 00:51:12;;;;;;;;;;;14.30;99.90;;;;;;5106478;27;20030;-78
2022/09/24 00:53:39;;;;;;;;;;;14.30;99.90;;;;;;5126193;27;19919;-78
2022/09/24 00:56:05;;;;;;;;;;;14.30;99.90;;;;;;5105842;27;19946;-78
2022/09/24 00:58:42;;;;;;;;;;;14.30;99.90;;;;;;5106877;27;19928;-79
2022/09/24 01:01:08;;;;;;;;;;;14.30;99.90;;;;;;5136404;27;19939;-78
2022/09/24 01:03:39;;;;;;;;;;;14.30;99.90;;;;;;5138685;27;20392;-78
2022/09/24 01:06:06;;;;;;;;;;;14.30;99.90;;;;;;5128180;27;19951;-78
2022/09/24 01:08:31;;;;;;;;;;;14.30;99.90;;;;;;5128834;27;19953;-78
2022/09/24 01:11:11;;;;;;;;;;;14.30;99.90;;;;;;5106606;28;19912;-78
2022/09/24 01:13:43;;;;;;;;;;;14.20;99.90;;;;;;5102596;28;19966;-78
2022/09/24 01:16:09;;;;;;;;;;;14.30;99.90;;;;;;5114776;27;21310;-78
2022/09/24 01:18:39;;;;;;;;;;;14.30;99.90;;;;;;5120986;27;19954;-78
2022/09/24 01:21:13;;;;;;;;;;;14.40;99.90;;;;;;5131419;27;20009;-79
2022/09/24 01:23:42;;;;;;;;;;;14.40;99.90;;;;;;5124369;28;19915;-78
2022/09/24 01:26:27;;;;;;;;;;;14.50;99.90;;;;;;5123382;28;19943;-78
2022/09/24 01:28:58;;;;;;;;;;;14.50;99.90;;;;;;5106149;28;19958;-79
2022/09/24 01:31:28;;;;;;;;;;;14.40;99.90;;;;;;5109260;28;19908;-79
2022/09/24 01:33:56;;;;;;;;;;;14.50;99.90;;;;;;5124360;28;19908;-78
2022/09/24 01:36:23;;;;;;;;;;;14.50;99.90;;;;;;5123178;28;19922;-78
2022/09/24 01:38:50;;;;;;;;;;;14.40;99.90;;;;;;5123096;28;19908;-78
2022/09/24 01:41:17;;;;;;;;;;;14.40;99.90;;;;;;5123245;28;20002;-80
2022/09/24 01:43:43;;;;;;;;;;;14.30;99.90;;;;;;5114579;27;19946;-79
2022/09/24 01:46:11;;;;;;;;;;;14.30;99.90;;;;;;5123512;27;20100;-78
2022/09/24 01:48:37;;;;;;;;;;;14.30;99.90;;;;;;5107117;27;20018;-79
2022/09/24 01:51:13;;;;;;;;;;;14.30;99.90;;;;;;5112772;27;19951;-78
2022/09/24 01:53:41;;;;;;;;;;;14.20;99.90;;;;;;5115667;27;20594;-78
2022/09/24 01:56:09;;;;;;;;;;;14.20;99.90;;;;;;5115625;27;19911;-79
2022/09/24 01:58:43;;;;;;;;;;;14.30;99.90;;;;;;5111728;27;19916;-78
2022/09/24 02:01:11;;;;;;;;;;;14.30;99.90;;;;;;5117508;27;19916;-78
2022/09/24 02:03:42;;;;;;;;;;;14.30;99.90;;;;;;5122250;27;19912;-78
2022/09/24 02:06:08;;;;;;;;;;;14.20;99.90;;;;;;5127644;27;19912;-78
2022/09/24 02:08:43;;;;;;;;;;;14.30;99.90;;;;;;5127679;27;19919;-78
2022/09/24 02:11:23;;;;;;;;;;;14.30;99.90;;;;;;5107905;27;19944;-78
2022/09/24 02:14:03;;;;;;;;;;;14.30;99.90;;;;;;5106217;27;19912;-78
2022/09/24 02:16:40;;;;;;;;;;;14.30;99.90;;;;;;5111719;27;19912;-79
2022/09/24 02:19:12;;;;;;;;;;;14.30;99.90;;;;;;5106742;27;19971;-78
2022/09/24 02:22:04;;;;;;;;;;;14.40;99.90;;;;;;5118114;27;19937;-78
2022/09/24 02:24:40;;;;;;;;;;;14.50;99.90;;;;;;5104768;28;20010;-79
2022/09/24 02:27:06;;;;;;;;;;;14.40;99.90;;;;;;5121883;27;19919;-79
2022/09/24 02:29:32;;;;;;;;;;;14.40;99.90;;;;;;5107066;27;19928;-78
2022/09/24 02:31:58;;;;;;;;;;;14.50;99.90;;;;;;5109566;27;19912;-78
2022/09/24 02:34:30;;;;;;;;;;;14.60;99.90;;;;;;5112921;27;19957;-78
2022/09/24 02:37:09;;;;;;;;;;;14.60;99.90;;;;;;5112535;27;19911;-78
2022/09/24 02:39:35;;;;;;;;;;;14.70;99.90;;;;;;5126160;27;19916;-78
2022/09/24 02:42:02;;;;;;;;;;;14.70;99.90;;;;;;5109246;27;19919;-78
2022/09/24 02:44:29;;;;;;;;;;;14.80;99.90;;;;;;5109198;27;19947;-78
2022/09/24 02:46:55;;;;;;;;;;;14.80;99.90;;;;;;5108345;27;20384;-78
2022/09/24 02:49:21;;;;;;;;;;;14.80;99.90;;;;;;5107117;28;19924;-79
2022/09/24 02:51:47;;;;;;;;;;;14.80;99.90;;;;;;5117780;27;19919;-78
2022/09/24 02:54:13;;;;;;;;;;;14.80;99.90;;;;;;5107646;27;19942;-78
2022/09/24 02:56:39;;;;;;;;;;;14.90;99.90;;;;;;5107076;28;19934;-78
2022/09/24 02:59:05;;;;;;;;;;;14.90;99.90;;;;;;5126226;27;19924;-78
2022/09/24 03:01:31;;;;;;;;;;;15.00;99.90;;;;;;5109427;27;19919;-78
2022/09/24 03:03:56;;;;;;;;;;;14.90;99.90;;;;;;5105394;27;19930;-78
2022/09/24 03:06:23;;;;;;;;;;;14.90;99.90;;;;;;5110036;28;20723;-78
2022/09/24 03:08:49;;;;;;;;;;;14.90;99.90;;;;;;5106417;28;19914;-78
2022/09/24 03:11:15;;;;;;;;;;;14.90;99.90;;;;;;5120884;27;19927;-78
2022/09/24 03:13:41;;;;;;;;;;;15.00;99.90;;;;;;5108775;27;19916;-78
2022/09/24 03:16:07;;;;;;;;;;;15.00;99.90;;;;;;5108970;27;19912;-78
2022/09/24 03:18:33;;;;;;;;;;;15.00;99.90;;;;;;5106734;27;19919;-80
2022/09/24 03:21:01;;;;;;;;;;;15.00;99.90;;;;;;5102960;27;19912;-77
2022/09/24 03:23:29;;;;;;;;;;;14.90;99.90;;;;;;5110885;27;20379;-79
2022/09/24 03:25:55;;;;;;;;;;;14.90;99.90;;;;;;5125379;27;19923;-77
2022/09/24 03:28:21;;;;;;;;;;;14.90;99.90;;;;;;5120245;27;19916;-77
2022/09/24 03:30:59;;;;;;;;;;;14.80;99.90;;;;;;5129628;27;19936;-77
2022/09/24 03:33:28;;;;;;;;;;;14.80;99.90;;;;;;5119442;27;19923;-77
2022/09/24 03:36:00;;;;;;;;;;;14.80;99.90;;;;;;5129666;27;19911;-77
2022/09/24 03:38:36;;;;;;;;;;;14.70;99.90;;;;;;5120597;27;19923;-77
2022/09/24 03:41:02;;;;;;;;;;;14.70;99.90;;;;;;5122291;27;20019;-77
2022/09/24 03:43:28;;;;;;;;;;;14.70;99.90;;;;;;5129081;27;19922;-77
2022/09/24 03:45:54;;;;;;;;;;;14.70;99.90;;;;;;5123772;27;19911;-77
2022/09/24 03:48:20;;;;;;;;;;;14.70;99.90;;;;;;5127229;27;19912;-77
2022/09/24 03:50:49;;;;;;;;;;;14.70;99.90;;;;;;5120956;27;19933;-77
2022/09/24 03:53:16;;;;;;;;;;;14.70;99.90;;;;;;5122938;27;19923;-77
2022/09/24 03:55:42;;;;;;;;;;;14.70;99.90;;;;;;5113710;28;19935;-77
2022/09/24 03:58:08;;;;;;;;;;;14.70;99.90;;;;;;5122477;27;19908;-77
2022/09/24 04:00:34;;;;;;;;;;;14.70;99.90;;;;;;5121055;27;19918;-76
2022/09/24 04:03:00;;;;;;;;;;;14.70;99.90;;;;;;5119947;27;19920;-77
2022/09/24 04:05:25;;;;;;;;;;;14.70;99.90;;;;;;5116891;27;20276;-77
2022/09/24 04:07:51;;;;;;;;;;;14.70;99.90;;;;;;5101651;27;19947;-76
2022/09/24 04:10:17;;;;;;;;;;;14.70;99.90;;;;;;5105572;27;19911;-77
2022/09/24 04:12:44;;;;;;;;;;;14.80;99.90;;;;;;5098863;28;20380;-77
2022/09/24 04:15:10;;;;;;;;;;;14.90;99.90;;;;;;5105388;27;20484;-76
2022/09/24 04:17:36;;;;;;;;;;;14.90;99.90;;;;;;5107042;28;19946;-77
2022/09/24 04:20:01;;;;;;;;;;;15.00;99.90;;;;;;5102420;28;20260;-77
2022/09/24 04:22:28;;;;;;;;;;;15.10;99.90;;;;;;5100005;28;19987;-77
2022/09/24 04:24:54;;;;;;;;;;;15.10;99.90;;;;;;5101658;27;19967;-77
2022/09/24 04:27:20;;;;;;;;;;;15.20;99.90;;;;;;5103231;28;19912;-76
2022/09/24 04:29:46;;;;;;;;;;;15.30;99.90;;;;;;5118372;28;20584;-76
2022/09/24 04:32:12;;;;;;;;;;;15.40;99.90;;;;;;5102018;28;19920;-76
2022/09/24 04:34:38;;;;;;;;;;;15.30;99.90;;;;;;5118280;27;19916;-77
2022/09/24 04:37:04;;;;;;;;;;;15.30;99.90;;;;;;5120511;28;19919;-77
2022/09/24 04:39:30;;;;;;;;;;;15.40;99.90;;;;;;5116826;27;19912;-77
2022/09/24 04:41:56;;;;;;;;;;;15.30;99.90;;;;;;5121822;27;19948;-77
2022/09/24 04:44:22;;;;;;;;;;;15.40;99.90;;;;;;5125902;28;19934;-77
2022/09/24 04:46:48;;;;;;;;;;;15.40;99.90;;;;;;5119149;27;20264;-77
2022/09/24 04:49:14;;;;;;;;;;;15.30;99.90;;;;;;5121667;27;19957;-78
2022/09/24 04:51:40;;;;;;;;;;;15.30;99.90;;;;;;5115743;27;19912;-77
2022/09/24 04:54:05;;;;;;;;;;;15.40;99.90;;;;;;5122268;27;19942;-77
2022/09/24 04:56:31;;;;;;;;;;;15.40;99.90;;;;;;5124261;27;20381;-77
2022/09/24 04:58:57;;;;;;;;;;;15.40;99.90;;;;;;5122423;27;19923;-78
2022/09/24 05:01:23;;;;;;;;;;;15.40;99.90;;;;;;5124378;27;20006;-77
2022/09/24 05:03:49;;;;;;;;;;;15.40;99.90;;;;;;5123930;27;19958;-77
2022/09/24 05:06:14;;;;;;;;;;;15.50;99.90;;;;;;5106505;28;20640;-76
2022/09/24 05:08:40;;;;;;;;;;;15.50;99.90;;;;;;5125230;28;19955;-77
2022/09/24 05:11:06;;;;;;;;;;;15.50;99.90;;;;;;5119788;27;19912;-77
2022/09/24 05:13:33;;;;;;;;;;;15.50;99.90;;;;;;5126383;27;19908;-77
2022/09/24 05:15:59;;;;;;;;;;;15.50;99.90;;;;;;5125874;27;20372;-77
2022/09/24 05:18:26;;;;;;;;;;;15.60;99.90;;;;;;5123631;28;19968;-79
2022/09/24 05:20:52;;;;;;;;;;;15.50;99.90;;;;;;5123049;27;19912;-77
2022/09/24 05:23:18;;;;;;;;;;;15.60;99.90;;;;;;5131831;27;19969;-77
2022/09/24 05:28:35;;;;;;;;;;;15.60;99.90;;;;;;5111878;28;19972;-77
2022/09/24 05:31:01;;;;;;;;;;;15.60;99.90;;;;;;5122336;27;19916;-80
2022/09/24 05:33:27;;;;;;;;;;;15.70;99.90;;;;;;5130242;27;19908;-77
2022/09/24 05:35:56;;;;;;;;;;;15.60;99.90;;;;;;5124144;27;19911;-78
2022/09/24 05:38:23;;;;;;;;;;;15.70;99.90;;;;;;5120089;27;19919;-78
2022/09/24 05:40:49;;;;;;;;;;;15.70;99.90;;;;;;5124215;27;19912;-77
2022/09/24 05:43:15;;;;;;;;;;;15.70;99.90;;;;;;5123752;27;20288;-77
2022/09/24 05:45:43;;;;;;;;;;;15.70;99.90;;;;;;5112894;27;19916;-79
2022/09/24 05:48:09;;;;;;;;;;;15.70;99.90;;;;;;5134321;27;19911;-79
2022/09/24 05:50:35;;;;;;;;;;;15.70;99.90;;;;;;5118533;27;19923;-78
2022/09/24 05:53:01;;;;;;;;;;;15.70;99.90;;;;;;5121860;27;19926;-78
2022/09/24 05:55:27;;;;;;;;;;;15.70;99.90;;;;;;5124602;27;20268;-77
2022/09/24 05:57:53;;;;;;;;;;;15.80;99.90;;;;;;5123798;27;19908;-77
2022/09/24 06:00:19;;;;;;;;;;;15.70;99.90;;;;;;5123345;27;19919;-78
2022/09/24 06:02:44;;;;;;;;;;;15.70;99.90;;;;;;5125409;27;20183;-77
2022/09/24 06:05:10;;;;;;;;;;;15.80;99.90;;;;;;5131131;27;19933;-77
2022/09/24 06:07:45;;;;;;;;;;;15.90;99.90;;;;;;5121192;27;19964;-77
2022/09/24 06:10:10;;;;;;;;;;;15.90;99.90;;;;;;5141576;27;19911;-77
2022/09/24 06:12:36;;;;;;;;;;;15.90;99.90;;;;;;5125427;27;19960;-78
2022/09/24 06:15:03;;;;;;;;;;;16.00;99.90;;;;;;5125622;27;20047;-78
2022/09/24 06:17:30;;;;;;;;;;;16.00;99.90;;;;;;5128858;27;19927;-77
2022/09/24 06:19:56;;;;;;;;;;;16.00;99.90;;;;;;5133906;27;20295;-78
2022/09/24 06:22:22;;;;;;;;;;;16.10;99.90;;;;;;5117488;28;19915;-79
2022/09/24 06:24:51;;;;;;;;;;;16.10;99.90;;;;;;5117718;27;19916;-77
2022/09/24 06:27:17;;;;;;;;;;;16.20;99.90;;;;;;5116739;28;19908;-77
2022/09/24 06:29:43;;;;;;;;;;;16.20;99.90;;;;;;5115927;28;19908;-77
2022/09/24 06:32:12;;;;;;;;;;;16.30;99.90;;;;;;5116907;28;19954;-77
2022/09/24 06:34:37;;;;;;;;;;;16.30;99.90;;;;;;5115579;28;19912;-78
2022/09/24 06:37:03;;;;;;;;;;;16.40;99.90;;;;;;5116907;28;19991;-78
2022/09/24 06:39:29;;;;;;;;;;;16.40;99.90;;;;;;5115786;28;19949;-78
2022/09/24 06:41:55;;;;;;;;;;;16.50;99.90;;;;;;5117201;28;19918;-77
2022/09/24 06:44:21;;;;;;;;;;;16.60;99.90;;;;;;5116040;28;20094;-77
2022/09/24 06:46:47;;;;;;;;;;;16.80;99.90;;;;;;5117052;28;19920;-80
2022/09/24 06:49:12;;;;;;;;;;;16.80;99.90;;;;;;5117933;27;19912;-78
2022/09/24 06:51:38;;;;;;;;;;;17.00;99.90;;;;;;5117323;28;19968;-78
2022/09/24 06:54:04;;;;;;;;;;;17.10;99.90;;;;;;5115721;28;20025;-78
2022/09/24 06:56:29;;;;;;;;;;;17.30;99.90;;;;;;5116777;28;19915;-77
2022/09/24 06:58:55;;;;;;;;;;;17.40;99.90;;;;;;5114937;28;19915;-77
2022/09/24 07:01:21;;;;;;;;;;;17.50;99.90;;;;;;5116398;28;19943;-77
2022/09/24 07:03:47;;;;;;;;;;;17.60;99.90;;;;;;5116558;28;19936;-78
2022/09/24 07:06:12;;;;;;;;;;;17.80;99.90;;;;;;5116013;28;19957;-77
2022/09/24 07:08:38;;;;;;;;;;;17.90;99.90;;;;;;5116240;28;19930;-77
2022/09/24 07:11:04;;;;;;;;;;;17.90;99.90;;;;;;5124874;27;19915;-77
2022/09/24 07:13:30;;;;;;;;;;;18.00;99.90;;;;;;5115617;27;19908;-81
2022/09/24 07:16:00;;;;;;;;;;;18.10;99.90;;;;;;5115856;28;20288;-77
2022/09/24 07:18:25;;;;;;;;;;;18.30;99.90;;;;;;5116807;28;19921;-78
2022/09/24 07:20:52;;;;;;;;;;;18.60;99.90;;;;;;5116028;28;20273;-77
2022/09/24 07:23:18;;;;;;;;;;;18.70;99.90;;;;;;5122350;27;19940;-77
2022/09/24 07:25:44;;;;;;;;;;;18.90;99.90;;;;;;5127878;27;20014;-77
2022/09/24 07:28:10;;;;;;;;;;;19.00;99.90;;;;;;5115631;28;20008;-77
2022/09/24 07:30:39;;;;;;;;;;;19.10;99.90;;;;;;5114524;28;19908;-77
2022/09/24 07:33:06;;;;;;;;;;;19.10;99.90;;;;;;5122626;27;20353;-77
2022/09/24 07:35:32;;;;;;;;;;;19.20;99.90;;;;;;5126130;27;19908;-71
2022/09/24 07:37:59;;;;;;;;;;;19.20;99.90;;;;;;5135009;27;19908;-71
2022/09/24 07:40:25;;;;;;;;;;;19.30;99.90;;;;;;5116908;27;19915;-71
2022/09/24 07:42:53;;;;;;;;;;;19.50;99.90;;;;;;5115458;27;19912;-76
2022/09/24 07:45:19;;;;;;;;;;;19.50;99.90;;;;;;5113480;28;20006;-70
2022/09/24 07:47:45;;;;;;;;;;;19.60;99.90;;;;;;5112721;28;19915;-71
2022/09/24 07:50:11;;;;;;;;;;;19.70;99.90;;;;;;5115059;27;19911;-71
2022/09/24 07:52:37;;;;;;;;;;;19.80;99.90;;;;;;5115139;28;19919;-71
2022/09/24 07:55:03;;;;;;;;;;;19.90;99.90;;;;;;5113044;28;19927;-74
2022/09/24 07:57:29;;;;;;;;;;;20.00;99.90;;;;;;5112333;28;19998;-71
2022/09/24 07:59:54;;;;;;;;;;;20.00;99.90;;;;;;5111745;27;19939;-72
2022/09/24 08:02:20;;;;;;;;;;;20.00;99.90;;;;;;5118798;27;20025;-72
2022/09/24 08:04:47;;;;;;;;;;;20.10;99.90;;;;;;5109057;27;20460;-72
2022/09/24 08:07:13;;;;;;;;;;;20.20;99.90;;;;;;5109851;27;19919;-72
2022/09/24 08:09:38;;;;;;;;;;;20.10;99.90;;;;;;5110793;28;20296;-72
2022/09/24 08:12:05;;;;;;;;;;;20.10;99.90;;;;;;5121835;27;19972;-72
2022/09/24 08:14:30;;;;;;;;;;;20.20;99.90;;;;;;5120228;27;19923;-72
2022/09/24 08:16:56;;;;;;;;;;;20.10;99.90;;;;;;5116968;27;20422;-72
2022/09/24 08:19:22;;;;;;;;;;;20.20;99.90;;;;;;5128968;27;19908;-72
2022/09/24 08:21:47;;;;;;;;;;;20.30;99.90;;;;;;5114921;28;19908;-72
2022/09/24 08:24:14;;;;;;;;;;;20.30;99.90;;;;;;5114427;28;20002;-72
2022/09/24 08:26:40;;;;;;;;;;;20.40;99.90;;;;;;5114442;28;19911;-73
2022/09/24 08:29:06;;;;;;;;;;;20.40;99.90;;;;;;5115527;28;20057;-72
2022/09/24 08:31:33;;;;;;;;;;;20.60;99.90;;;;;;5126010;27;19951;-72
2022/09/24 08:34:00;;;;;;;;;;;20.60;99.90;;;;;;5133825;27;19914;-72
2022/09/24 08:36:26;;;;;;;;;;;20.60;99.90;;;;;;5112808;28;19951;-72
2022/09/24 08:38:55;;;;;;;;;;;20.60;99.90;;;;;;5129114;27;19912;-72
2022/09/24 08:41:43;;;;;;;;;;;20.70;99.90;;;;;;5105391;28;20269;-73
2022/09/24 08:47:21;;;;;;;;;;;20.60;99.90;;;;;;5123524;28;19926;-73
2022/09/24 08:49:49;;;;;;;;;;;20.90;99.90;;;;;;5110477;28;19930;-72
2022/09/24 08:52:24;;;;;;;;;;;20.80;99.90;;;;;;5105589;28;19945;-72
2022/09/24 08:54:52;;;;;;;;;;;20.80;99.90;;;;;;5110949;28;19908;-72
2022/09/24 08:57:19;;;;;;;;;;;21.00;99.90;;;;;;5112673;28;20005;-72
2022/09/24 08:59:51;;;;;;;;;;;21.30;99.90;;;;;;5117667;28;19916;-72
2022/09/24 09:02:36;;;;;;;;;;;21.60;99.90;;;;;;5105889;28;19995;-72
2022/09/24 09:05:28;;;;;;;;;;;21.70;99.90;;;;;;5115699;28;19934;-72
2022/09/24 09:08:01;;;;;;;;;;;21.50;99.90;;;;;;5126011;27;19908;-72
2022/09/24 09:10:45;;;;;;;;;;;21.70;99.90;;;;;;5116637;28;19908;-72
2022/09/24 09:13:27;;;;;;;;;;;21.80;99.90;;;;;;5123849;27;20539;-72
2022/09/24 09:16:05;;;;;;;;;;;21.90;99.90;;;;;;5120482;27;19908;-73
2022/09/24 09:18:42;;;;;;;;;;;22.00;99.90;;;;;;5117000;27;19999;-73
2022/09/24 09:21:36;;;;;;;;;;;22.30;99.90;;;;;;5116832;27;19918;-74
2022/09/24 09:24:03;;;;;;;;;;;22.50;99.90;;;;;;5115078;27;19919;-73
2022/09/24 09:26:28;;;;;;;;;;;22.50;99.90;;;;;;5120484;27;19955;-72
2022/09/24 09:28:57;;;;;;;;;;;22.50;99.90;;;;;;5116253;28;19927;-73
2022/09/24 09:31:31;;;;;;;;;;;22.20;99.90;;;;;;5117573;28;19911;-75
2022/09/24 09:34:20;;;;;;;;;;;22.20;99.90;;;;;;5128597;27;20404;-73
2022/09/24 09:36:45;;;;;;;;;;;22.00;99.90;;;;;;5126398;27;19922;-72
2022/09/24 09:39:30;;;;;;;;;;;22.00;99.90;;;;;;5116546;27;19908;-72
2022/09/24 09:42:20;;;;;;;;;;;21.90;99.90;;;;;;5115748;28;19920;-73
2022/09/24 09:44:46;;;;;;;;;;;21.90;99.90;;;;;;5119676;27;19919;-73
2022/09/24 09:47:24;;;;;;;;;;;21.80;99.90;;;;;;5132070;27;19920;-73
2022/09/24 09:49:51;;;;;;;;;;;21.80;99.90;;;;;;5115912;27;19915;-73
2022/09/24 09:52:19;;;;;;;;;;;22.00;99.90;;;;;;5125723;27;19919;-73
2022/09/24 09:54:48;;;;;;;;;;;22.20;99.90;;;;;;5111196;27;19993;-73
2022/09/24 09:57:18;;;;;;;;;;;22.50;99.90;;;;;;5115726;27;20002;-73
2022/09/24 09:59:45;;;;;;;;;;;22.90;99.90;;;;;;5131855;27;19907;-73
2022/09/24 10:02:18;;;;;;;;;;;23.00;99.90;;;;;;5123067;27;19912;-73
2022/09/24 10:04:43;;;;;;;;;;;22.80;99.90;;;;;;5121811;27;19915;-73
2022/09/24 10:07:10;;;;;;;;;;;22.70;99.90;;;;;;5114616;27;19964;-73
2022/09/24 10:09:37;;;;;;;;;;;22.80;99.90;;;;;;5118876;27;20405;-73
2022/09/24 10:12:14;;;;;;;;;;;23.00;99.90;;;;;;5113562;27;19919;-73
2022/09/24 10:14:39;;;;;;;;;;;23.30;99.90;;;;;;5115860;27;19988;-73
2022/09/24 10:17:12;;;;;;;;;;;23.40;99.90;;;;;;5118855;27;19912;-73
2022/09/24 10:19:39;;;;;;;;;;;23.50;99.90;;;;;;5119934;27;19908;-73
2022/09/24 10:22:21;;;;;;;;;;;23.60;99.90;;;;;;5114222;27;20230;-73
2022/09/24 10:24:50;;;;;;;;;;;23.60;99.90;;;;;;5112853;27;20050;-73
2022/09/24 10:27:28;;;;;;;;;;;23.60;99.90;;;;;;5115755;27;20132;-73
2022/09/24 10:32:39;;;;;;;;;;;23.30;99.90;;;;;;5129513;27;19964;-73
2022/09/24 10:35:43;;;;;;;;;;;23.00;99.90;;;;;;5112664;27;20388;-73
2022/09/24 10:38:22;;;;;;;;;;;22.80;99.90;;;;;;5101857;28;19940;-73
2022/09/24 10:40:48;;;;;;;;;;;22.80;99.90;;;;;;5085209;28;19916;-73
2022/09/24 10:43:18;;;;;;;;;;;22.80;99.90;;;;;;5102087;27;20344;-73
2022/09/24 10:45:45;;;;;;;;;;;22.70;99.90;;;;;;5109577;27;20429;-73
2022/09/24 10:48:15;;;;;;;;;;;22.90;99.90;;;;;;5124574;27;20051;-73
2022/09/24 10:51:00;;;;;;;;;;;22.80;99.90;;;;;;5123050;27;19911;-73
2022/09/24 10:53:40;;;;;;;;;;;22.70;99.90;;;;;;5130581;27;19912;-73
2022/09/24 10:56:20;;;;;;;;;;;22.90;99.90;;;;;;5113764;27;20333;-74
2022/09/24 10:59:00;;;;;;;;;;;23.00;99.90;;;;;;5112031;28;19912;-74
2022/09/24 11:01:32;;;;;;;;;;;22.60;99.90;;;;;;5094714;28;19929;-72
2022/09/24 11:04:11;;;;;;;;;;;22.50;99.90;;;;;;5118323;27;19996;-72
2022/09/24 11:06:56;;;;;;;;;;;22.50;99.90;;;;;;5120085;27;19912;-72
2022/09/24 11:09:24;;;;;;;;;;;22.60;99.90;;;;;;5095049;28;19912;-72
2022/09/24 11:12:06;;;;;;;;;;;22.50;99.90;;;;;;5114273;27;19911;-73
2022/09/24 11:14:43;;;;;;;;;;;22.70;99.90;;;;;;5134923;27;20060;-71
2022/09/24 11:17:12;;;;;;;;;;;22.80;99.90;;;;;;5112900;27;19951;-73
2022/09/24 11:19:54;;;;;;;;;;;22.80;99.90;;;;;;5126725;27;19911;-71
2022/09/24 11:22:35;;;;;;;;;;;22.60;99.90;;;;;;5112769;27;19915;-72
2022/09/24 11:25:19;;;;;;;;;;;22.30;99.90;;;;;;5129236;27;19977;-73
2022/09/24 11:27:57;;;;;;;;;;;22.30;99.90;;;;;;5119542;27;19933;-72
2022/09/24 11:30:26;;;;;;;;;;;22.20;99.90;;;;;;5118617;27;20361;-72
2022/09/24 11:32:51;;;;;;;;;;;22.20;99.90;;;;;;5106158;27;19958;-72
2022/09/24 11:35:44;;;;;;;;;;;22.10;99.90;;;;;;5122300;27;20335;-72
2022/09/24 11:38:21;;;;;;;;;;;21.90;99.90;;;;;;5119370;27;19920;-72
2022/09/24 11:41:02;;;;;;;;;;;22.10;99.90;;;;;;5120764;27;19983;-72
2022/09/24 11:43:47;;;;;;;;;;;22.40;99.90;;;;;;5113172;27;19911;-72
2022/09/24 11:46:21;;;;;;;;;;;22.50;99.90;;;;;;5128835;27;19951;-72
2022/09/24 11:49:06;;;;;;;;;;;22.40;99.90;;;;;;5112658;28;19915;-72
2022/09/24 11:51:40;;;;;;;;;;;22.60;99.90;;;;;;5120351;27;19981;-72
2022/09/24 11:54:18;;;;;;;;;;;22.60;99.90;;;;;;5120866;27;20341;-73
2022/09/24 11:56:46;;;;;;;;;;;22.70;99.90;;;;;;5122840;27;19915;-73
2022/09/24 11:59:26;;;;;;;;;;;22.90;99.90;;;;;;5118617;27;19922;-73
2022/09/24 12:01:56;;;;;;;;;;;22.90;99.90;;;;;;5122422;27;19918;-73
2022/09/24 12:04:30;;;;;;;;;;;22.80;99.90;;;;;;5125969;27;20376;-73
2022/09/24 12:07:01;;;;;;;;;;;23.00;99.90;;;;;;5111599;28;19969;-73
2022/09/24 12:09:40;;;;;;;;;;;22.80;99.90;;;;;;5117860;27;19911;-72
2022/09/24 12:12:20;;;;;;;;;;;22.80;99.90;;;;;;5138356;27;19923;-73
2022/09/24 12:14:55;;;;;;;;;;;23.00;99.90;;;;;;5110617;28;19920;-74
2022/09/24 12:17:25;;;;;;;;;;;23.00;99.90;;;;;;5112882;27;19915;-73
2022/09/24 12:20:01;;;;;;;;;;;22.80;99.90;;;;;;5118935;27;19919;-73
2022/09/24 12:22:31;;;;;;;;;;;22.70;99.90;;;;;;5105433;28;19943;-74
2022/09/24 12:24:59;;;;;;;;;;;22.60;99.90;;;;;;5103613;28;19988;-72
2022/09/24 12:27:27;;;;;;;;;;;22.60;99.90;;;;;;5128346;27;20300;-73
2022/09/24 12:33:05;;;;;;;;;;;22.10;99.90;;;;;;5119963;28;20268;-72
2022/09/24 12:35:44;;;;;;;;;;;22.00;99.90;;;;;;5118204;28;20324;-72
2022/09/24 12:38:20;;;;;;;;;;;22.20;99.90;;;;;;5109791;28;19919;-72
2022/09/24 12:40:49;;;;;;;;;;;22.40;99.90;;;;;;5136018;27;19911;-73
2022/09/24 12:43:24;;;;;;;;;;;22.50;99.90;;;;;;5114140;27;19916;-72
2022/09/24 12:45:54;;;;;;;;;;;22.50;99.90;;;;;;5126668;27;20395;-72
2022/09/24 12:48:21;;;;;;;;;;;22.50;99.90;;;;;;5126669;27;20421;-72
2022/09/24 12:50:54;;;;;;;;;;;22.50;99.90;;;;;;5125413;27;19911;-73
2022/09/24 12:53:23;;;;;;;;;;;22.60;99.90;;;;;;5109206;27;20333;-71
2022/09/24 12:55:49;;;;;;;;;;;22.60;99.90;;;;;;5129962;27;20424;-72
2022/09/24 12:58:29;;;;;;;;;;;22.50;99.90;;;;;;5124060;27;19938;-73
2022/09/24 13:01:04;;;;;;;;;;;22.30;99.90;;;;;;5129034;27;19955;-73
2022/09/24 13:03:34;;;;;;;;;;;22.10;99.90;;;;;;5124243;27;19911;-72
2022/09/24 13:06:00;;;;;;;;;;;21.90;99.90;;;;;;5113588;27;19916;-72
2022/09/24 13:08:35;;;;;;;;;;;21.90;99.90;;;;;;5126147;27;19931;-73
2022/09/24 13:11:04;;;;;;;;;;;21.80;99.90;;;;;;5134751;27;19911;-72
2022/09/24 13:13:35;;;;;;;;;;;21.80;99.90;;;;;;5137680;27;19907;-72
2022/09/24 13:16:01;;;;;;;;;;;21.80;99.90;;;;;;5121470;27;19912;-72
2022/09/24 13:18:27;;;;;;;;;;;21.90;99.90;;;;;;5131742;27;19986;-72
2022/09/24 13:20:58;;;;;;;;;;;21.80;99.90;;;;;;5127553;27;19911;-72
2022/09/24 13:23:24;;;;;;;;;;;21.90;99.90;;;;;;5117956;27;20357;-73
2022/09/24 13:25:56;;;;;;;;;;;22.10;99.90;;;;;;5112440;27;19916;-72
2022/09/24 13:28:26;;;;;;;;;;;22.10;99.90;;;;;;5118849;27;20361;-72
2022/09/24 13:31:08;;;;;;;;;;;22.00;99.90;;;;;;5116698;27;19958;-73
2022/09/24 13:33:39;;;;;;;;;;;22.10;99.90;;;;;;5115382;27;20389;-72
2022/09/24 13:36:25;;;;;;;;;;;21.90;99.90;;;;;;5120837;27;19967;-73
2022/09/24 13:38:56;;;;;;;;;;;21.90;99.90;;;;;;5114579;27;20059;-72
2022/09/24 13:41:29;;;;;;;;;;;22.00;99.90;;;;;;5131571;27;20433;-73
2022/09/24 13:44:13;;;;;;;;;;;21.90;99.90;;;;;;5136491;27;20384;-73
2022/09/24 13:46:41;;;;;;;;;;;21.70;99.90;;;;;;5119081;27;19915;-72
2022/09/24 13:49:18;;;;;;;;;;;21.80;99.90;;;;;;5125367;27;19919;-73
2022/09/24 13:52:07;;;;;;;;;;;21.70;99.90;;;;;;5108568;27;20304;-72
2022/09/24 13:54:35;;;;;;;;;;;21.70;99.90;;;;;;5107054;27;21767;-73
2022/09/24 13:57:13;;;;;;;;;;;21.70;99.90;;;;;;5116463;27;19916;-73
2022/09/24 13:59:39;;;;;;;;;;;21.70;99.90;;;;;;5115996;27;19915;-72
2022/09/24 14:02:21;;;;;;;;;;;21.70;99.90;;;;;;5113427;27;20284;-73
2022/09/24 14:04:49;;;;;;;;;;;21.70;99.90;;;;;;5111528;27;20007;-73
2022/09/24 14:07:16;;;;;;;;;;;21.90;99.90;;;;;;5121404;27;20033;-73
2022/09/24 14:09:46;;;;;;;;;;;21.80;99.90;;;;;;5135700;27;19915;-72
2022/09/24 14:12:17;;;;;;;;;;;21.80;99.90;;;;;;5131228;27;19912;-73
2022/09/24 14:14:46;;;;;;;;;;;21.90;99.90;;;;;;5113114;28;19908;-73
2022/09/24 14:17:14;;;;;;;;;;;21.80;99.90;;;;;;5122038;27;19966;-73
2022/09/24 14:19:40;;;;;;;;;;;21.90;99.90;;;;;;5121280;27;19981;-75
2022/09/24 14:22:10;;;;;;;;;;;21.90;99.90;;;;;;5113053;27;19923;-73
2022/09/24 14:24:43;;;;;;;;;;;21.90;99.90;;;;;;5120183;27;20015;-73
2022/09/24 14:27:12;;;;;;;;;;;22.10;99.90;;;;;;5117721;27;20180;-77
2022/09/24 14:29:37;;;;;;;;;;;22.20;99.90;;;;;;5115027;27;20277;-72
2022/09/24 14:32:05;;;;;;;;;;;22.20;99.90;;;;;;5104548;27;20008;-73
2022/09/24 14:34:37;;;;;;;;;;;22.20;99.90;;;;;;5112235;27;20010;-72
2022/09/24 14:37:09;;;;;;;;;;;22.10;99.90;;;;;;5116240;27;19919;-73
2022/09/24 14:39:37;;;;;;;;;;;21.90;99.90;;;;;;5120431;27;19958;-72
2022/09/24 14:42:07;;;;;;;;;;;21.90;99.90;;;;;;5109474;27;19925;-72
2022/09/24 14:44:33;;;;;;;;;;;21.70;99.90;;;;;;5120517;27;19940;-73
2022/09/24 14:46:59;;;;;;;;;;;21.50;99.90;;;;;;5116801;27;19964;-73